Time;durP1;ratioP1;P1;durP2;ratioP2;P2;SDS_P1;SDS_P2;PMS_P1;PMS_P2;Temp;Humidity;BMP_temperature;BMP_pressure;BME280_temperature;BME280_humidity;BME280_pressure;Samples;Min_cycle;Max_cycle;Signal;HPM_P1;HPM_P2
2022/05/17 00:01:04;;;;;;;3.43;1.20;;;;;;;5.92;100.00;99672.77;1772737;78;21326;-49
2022/05/17 00:03:30;;;;;;;2.27;1.00;;;;;;;5.86;100.00;99666.70;1766991;78;21537;-48
2022/05/17 00:05:57;;;;;;;5.60;1.73;;;;;;;5.81;100.00;99669.95;1768897;78;21044;-48
2022/05/17 00:08:24;;;;;;;4.97;1.00;;;;;;;5.77;100.00;99664.31;1765779;78;21055;-49
2022/05/17 00:10:50;;;;;;;5.30;1.10;;;;;;;5.75;100.00;99665.69;1766992;78;22515;-48
2022/05/17 00:13:17;;;;;;;3.83;1.20;;;;;;;5.69;100.00;99668.55;1763722;78;21096;-48
2022/05/17 00:15:46;;;;;;;5.03;1.50;;;;;;;5.62;100.00;99659.82;1769375;78;21051;-48
2022/05/17 00:18:13;;;;;;;10.10;1.23;;;;;;;5.57;100.00;99668.44;1772368;78;21032;-48
2022/05/17 00:20:41;;;;;;;5.60;1.13;;;;;;;5.52;100.00;99666.84;1765933;78;21553;-49
2022/05/17 00:23:08;;;;;;;8.80;1.13;;;;;;;5.48;100.00;99666.49;1768910;78;21691;-49
2022/05/17 00:25:35;;;;;;;4.17;1.00;;;;;;;5.45;100.00;99671.45;1769389;78;20921;-49
2022/05/17 00:28:02;;;;;;;2.03;0.97;;;;;;;5.42;100.00;99662.67;1763791;78;20910;-48
2022/05/17 00:30:28;;;;;;;2.60;1.00;;;;;;;5.40;100.00;99657.83;1768721;78;21752;-48
2022/05/17 00:32:55;;;;;;;4.37;1.10;;;;;;;5.42;100.00;99662.67;1760880;78;21053;-49
2022/05/17 00:35:21;;;;;;;5.20;1.50;;;;;;;5.45;100.00;99661.23;1763154;78;21148;-50
2022/05/17 00:37:48;;;;;;;4.63;1.27;;;;;;;5.47;100.00;99660.28;1765686;78;21099;-50
2022/05/17 00:40:15;;;;;;;2.77;1.00;;;;;;;5.53;100.00;99664.09;1768283;78;21004;-50
2022/05/17 00:42:41;;;;;;;12.27;2.73;;;;;;;5.59;100.00;99655.05;1764433;78;21709;-49
2022/05/17 00:45:09;;;;;;;4.00;1.30;;;;;;;5.61;100.00;99658.06;1761956;78;21064;-50
2022/05/17 00:47:45;;;;;;;3.90;1.40;;;;;;;5.65;100.00;99661.08;1771350;78;21244;-50
2022/05/17 00:50:24;;;;;;;4.83;1.43;;;;;;;5.64;100.00;99664.66;1750758;78;20925;-50
2022/05/17 00:52:56;;;;;;;8.77;1.63;;;;;;;5.65;100.00;99661.53;1766600;78;20922;-50
2022/05/17 00:55:30;;;;;;;5.20;1.30;;;;;;;5.66;100.00;99657.95;1774481;78;20961;-50
2022/05/17 00:58:05;;;;;;;6.55;1.47;;;;;;;5.71;100.00;99656.00;1769414;78;20941;-49
2022/05/17 01:00:33;;;;;;;;;;;;;;;5.78;100.00;99657.59;1767922;79;21243;-50
2022/05/17 01:03:04;;;;;;;6.90;0.97;;;;;;;5.84;100.00;99658.73;1750775;79;20426;-50
2022/05/17 01:05:32;;;;;;;5.07;0.90;;;;;;;5.90;100.00;99657.23;1774938;78;20940;-49
2022/05/17 01:07:59;;;;;;;1.63;0.90;;;;;;;5.97;100.00;99649.44;1769490;78;21213;-50
2022/05/17 01:10:27;;;;;;;5.03;0.80;;;;;;;6.06;100.00;99652.28;1763260;78;21000;-49
2022/05/17 01:15:38;;;;;;;4.55;0.60;;;;;;;6.24;100.00;99640.13;1767092;78;26160;-51
2022/05/17 01:18:05;;;;;;;1.90;0.70;;;;;;;6.35;100.00;99635.32;1746946;80;21378;-50
2022/05/17 01:20:32;;;;;;;1.53;0.60;;;;;;;6.45;100.00;99641.66;1768655;78;21119;-50
2022/05/17 01:23:00;;;;;;;1.03;0.60;;;;;;;6.54;100.00;99639.14;1710050;78;21352;-50
2022/05/17 01:25:28;;;;;;;1.63;0.50;;;;;;;6.65;100.00;99629.39;1766632;78;21080;-49
2022/05/17 01:28:02;;;;;;;2.30;0.60;;;;;;;6.72;100.00;99630.45;1763338;78;21096;-51
2022/05/17 01:30:30;;;;;;;1.85;0.50;;;;;;;6.80;100.00;99625.72;1764038;78;21036;-50
2022/05/17 01:32:56;;;;;;;1.30;0.50;;;;;;;6.90;100.00;99625.39;1767949;78;21048;-50
2022/05/17 01:35:23;;;;;;;2.27;0.50;;;;;;;6.98;100.00;99630.02;1765728;78;21052;-50
2022/05/17 01:37:55;;;;;;;0.90;0.60;;;;;;;7.05;100.00;99627.09;1765680;78;21128;-50
2022/05/17 01:40:22;;;;;;;2.23;0.50;;;;;;;7.12;100.00;99625.06;1765421;78;21084;-49
2022/05/17 01:42:49;;;;;;;0.83;0.30;;;;;;;7.18;100.00;99622.15;1765106;78;21087;-51
2022/05/17 01:45:15;;;;;;;3.20;0.50;;;;;;;7.25;100.00;99620.11;1767372;78;22261;-49
2022/05/17 01:47:43;;;;;;;6.27;0.50;;;;;;;7.30;100.00;99624.86;1765048;78;21076;-48
2022/05/17 01:50:10;;;;;;;3.53;0.47;;;;;;;7.33;100.00;99620.23;1764596;78;21537;-48
2022/05/17 01:52:36;;;;;;;1.30;0.50;;;;;;;7.37;100.00;99617.00;1773683;78;21111;-50
2022/05/17 01:55:03;;;;;;;0.97;0.40;;;;;;;7.39;100.00;99625.86;1774109;78;21020;-49
2022/05/17 01:57:30;;;;;;;1.03;0.40;;;;;;;7.40;100.00;99615.06;1771216;78;21000;-49
2022/05/17 01:59:58;;;;;;;2.73;0.40;;;;;;;7.40;100.00;99609.70;1771065;78;21649;-48
2022/05/17 02:02:24;;;;;;;0.87;0.30;;;;;;;7.41;100.00;99610.58;1774723;78;21200;-48
2022/05/17 02:04:51;;;;;;;3.67;0.47;;;;;;;7.42;100.00;99609.19;1780062;78;21491;-50
2022/05/17 02:07:17;;;;;;;1.03;0.40;;;;;;;7.43;100.00;99610.94;1774444;78;21023;-50
2022/05/17 02:09:43;;;;;;;1.97;0.50;;;;;;;7.44;100.00;99606.45;1777495;78;21052;-50
2022/05/17 02:12:11;;;;;;;1.17;0.40;;;;;;;7.43;100.00;99607.38;1755354;80;21102;-49
2022/05/17 02:14:37;;;;;;;0.77;0.40;;;;;;;7.41;100.00;99612.80;1761138;80;21209;-50
2022/05/17 02:17:04;;;;;;;4.40;0.50;;;;;;;7.41;100.00;99609.23;1754150;80;21103;-50
2022/05/17 02:19:33;;;;;;;1.30;0.40;;;;;;;7.40;100.00;99607.52;1756890;80;20927;-49
2022/05/17 02:21:59;;;;;;;1.07;0.40;;;;;;;7.37;100.00;99607.16;1755313;80;20963;-50
2022/05/17 02:24:27;;;;;;;2.37;0.40;;;;;;;7.36;100.00;99607.21;1756899;80;20896;-49
2022/05/17 02:26:55;;;;;;;2.13;0.60;;;;;;;7.33;100.00;99614.01;1753268;80;21077;-50
2022/05/17 02:29:22;;;;;;;1.73;0.50;;;;;;;7.28;100.00;99612.86;1752520;80;20943;-49
2022/05/17 02:31:50;;;;;;;1.50;0.40;;;;;;;7.24;100.00;99612.55;1756906;80;21074;-49
2022/05/17 02:34:18;;;;;;;1.03;0.30;;;;;;;7.20;100.00;99611.80;1754000;80;21038;-48
2022/05/17 02:36:46;;;;;;;2.20;0.30;;;;;;;7.20;100.00;99615.82;1759597;79;21035;-46
2022/05/17 02:39:12;;;;;;;0.73;0.30;;;;;;;7.23;100.00;99616.64;1758078;79;21585;-48
2022/05/17 02:41:39;;;;;;;0.60;0.30;;;;;;;7.24;100.00;99615.22;1751460;80;21117;-49
2022/05/17 02:44:07;;;;;;;1.90;0.30;;;;;;;7.27;100.00;99613.78;1753490;80;21102;-48
2022/05/17 02:46:35;;;;;;;3.30;0.30;;;;;;;7.28;100.00;99614.20;1754500;80;21380;-46
2022/05/17 02:49:04;;;;;;;0.77;0.20;;;;;;;7.31;100.00;99613.22;1755969;80;21075;-45
2022/05/17 02:51:31;;;;;;;0.97;0.30;;;;;;;7.33;100.00;99612.67;1745465;79;21192;-46
2022/05/17 02:53:58;;;;;;;2.73;0.30;;;;;;;7.36;100.00;99614.78;1762867;78;21079;-49
2022/05/17 02:56:24;;;;;;;0.97;0.30;;;;;;;7.38;100.00;99616.95;1760771;78;21511;-49
2022/05/17 02:58:51;;;;;;;0.27;0.10;;;;;;;7.41;100.00;99604.76;1768211;78;21107;-46
2022/05/17 03:01:17;;;;;;;7.67;0.20;;;;;;;7.45;100.00;99602.85;1765956;78;21079;-44
2022/05/17 03:03:44;;;;;;;0.40;0.20;;;;;;;7.49;100.00;99606.68;1764339;78;21336;-49
2022/05/17 03:06:11;;;;;;;0.30;0.10;;;;;;;7.55;100.00;99604.25;1762459;78;21092;-50
2022/05/17 03:08:38;;;;;;;1.03;0.10;;;;;;;7.63;100.00;99607.97;1770442;78;21096;-46
2022/05/17 03:11:05;;;;;;;0.30;0.20;;;;;;;7.69;100.00;99599.69;1767822;78;20965;-46
2022/05/17 03:13:33;;;;;;;2.30;0.20;;;;;;;7.77;100.00;99595.78;1761844;78;21063;-47
2022/05/17 03:16:00;;;;;;;1.47;0.20;;;;;;;7.84;100.00;99592.38;1767901;78;20942;-45
2022/05/17 03:18:26;;;;;;;4.17;0.20;;;;;;;7.91;100.00;99590.73;1767761;78;21388;-47
2022/05/17 03:20:52;;;;;;;0.40;0.20;;;;;;;7.99;100.00;99585.94;1765391;78;21322;-48
2022/05/17 03:23:19;;;;;;;1.43;0.20;;;;;;;8.06;100.00;99581.69;1766148;78;20905;-49
2022/05/17 03:25:46;;;;;;;0.30;0.10;;;;;;;8.14;100.00;99578.23;1766073;78;20910;-47
2022/05/17 03:28:12;;;;;;;1.97;0.20;;;;;;;8.21;100.00;99572.55;1765754;78;21092;-46
2022/05/17 03:30:39;;;;;;;2.00;0.50;;;;;;;8.27;100.00;99564.23;1762921;78;21819;-44
2022/05/17 03:33:07;;;;;;;0.50;0.20;;;;;;;8.34;100.00;99572.46;1765745;78;21464;-47
2022/05/17 03:35:34;;;;;;;0.60;0.20;;;;;;;8.41;100.00;99582.95;1765619;78;20949;-47
2022/05/17 03:38:00;;;;;;;0.30;0.10;;;;;;;8.47;100.00;99593.42;1773372;78;21374;-46
2022/05/17 03:40:27;;;;;;;0.20;0.10;;;;;;;8.52;100.00;99590.93;1769194;78;21770;-45
2022/05/17 03:42:53;;;;;;;1.50;0.20;;;;;;;8.57;100.00;99588.07;1766453;78;21388;-49
2022/05/17 03:45:19;;;;;;;4.00;0.20;;;;;;;8.63;100.00;99585.12;1765591;78;20961;-47
2022/05/17 03:47:46;;;;;;;0.40;0.20;;;;;;;8.68;100.00;99579.06;1768865;78;20961;-46
2022/05/17 03:50:12;;;;;;;3.20;0.10;;;;;;;8.74;100.00;99577.48;1765311;78;21005;-47
2022/05/17 03:52:39;;;;;;;5.93;0.10;;;;;;;8.80;100.00;99589.28;1754860;80;20952;-47
2022/05/17 03:55:06;;;;;;;4.97;0.20;;;;;;;8.84;100.00;99592.25;1758135;80;21596;-45
2022/05/17 03:57:34;;;;;;;1.00;0.10;;;;;;;8.89;100.00;99580.83;1758122;80;21478;-45
2022/05/17 04:00:01;;;;;;;1.53;0.20;;;;;;;8.95;100.00;99581.89;1758120;80;20872;-45
2022/05/17 04:02:27;;;;;;;0.20;0.10;;;;;;;9.00;100.00;99578.55;1755070;80;21099;-51
2022/05/17 04:04:55;;;;;;;0.90;0.20;;;;;;;9.04;100.00;99577.92;1753615;80;21055;-50
2022/05/17 04:07:22;;;;;;;2.17;0.20;;;;;;;9.09;100.00;99575.92;1749826;80;21555;-47
2022/05/17 04:09:50;;;;;;;0.53;0.10;;;;;;;9.15;100.00;99572.09;1752851;80;21086;-48
2022/05/17 04:12:17;;;;;;;0.53;0.20;;;;;;;9.20;100.00;99574.08;1752812;80;21482;-45
2022/05/17 04:14:43;;;;;;;1.70;0.10;;;;;;;9.26;100.00;99567.98;1752788;80;22012;-45
2022/05/17 04:17:10;;;;;;;0.90;0.10;;;;;;;9.33;100.00;99568.56;1757523;80;21217;-47
2022/05/17 04:19:38;;;;;;;1.73;0.10;;;;;;;9.40;100.00;99571.36;1757363;80;21461;-50
2022/05/17 04:22:08;;;;;;;3.43;0.10;;;;;;;9.46;100.00;99573.28;1757891;80;21086;-44
2022/05/17 04:24:35;;;;;;;0.30;0.17;;;;;;;9.54;100.00;99566.67;1756141;80;21174;-46
2022/05/17 04:27:01;;;;;;;0.50;0.10;;;;;;;9.62;100.00;99563.16;1752509;80;21058;-50
2022/05/17 04:29:27;;;;;;;0.53;0.10;;;;;;;9.68;100.00;99559.73;1758949;80;22546;-46
2022/05/17 04:31:54;;;;;;;1.30;0.10;;;;;;;9.75;100.00;99553.11;1758148;80;21584;-49
2022/05/17 04:34:20;;;;;;;7.63;0.20;;;;;;;9.84;100.00;99548.64;1753250;80;21059;-47
2022/05/17 04:36:46;;;;;;;0.83;0.10;;;;;;;9.96;100.00;99552.53;1754115;79;21098;-48
2022/05/17 04:39:13;;;;;;;0.40;0.10;;;;;;;10.06;100.00;99551.61;1755786;80;21117;-49
2022/05/17 04:41:39;;;;;;;0.40;0.20;;;;;;;10.14;100.00;99554.78;1752845;80;21321;-45
2022/05/17 04:44:05;;;;;;;0.37;0.10;;;;;;;10.22;100.00;99566.94;1747671;80;21041;-45
2022/05/17 04:46:32;;;;;;;1.40;0.10;;;;;;;10.29;100.00;99566.19;1753523;80;21173;-48
2022/05/17 04:48:59;;;;;;;0.60;0.20;;;;;;;10.33;100.00;99565.07;1760109;80;21039;-46
2022/05/17 04:51:27;;;;;;;1.07;0.20;;;;;;;10.38;100.00;99571.08;1754802;80;21133;-50
2022/05/17 04:53:53;;;;;;;0.80;0.30;;;;;;;10.44;100.00;99569.45;1774661;78;21089;-50
2022/05/17 04:56:19;;;;;;;0.37;0.10;;;;;;;10.49;100.00;99552.58;1764374;80;21078;-51
2022/05/17 04:58:46;;;;;;;0.30;0.10;;;;;;;10.57;100.00;99552.19;1776294;80;21105;-49
2022/05/17 05:01:15;;;;;;;1.02;0.20;;;;;;;10.67;100.00;99557.50;1768951;80;21109;-50
2022/05/17 05:03:42;;;;;;;2.05;0.20;;;;;;;10.79;100.00;99555.53;1794121;78;20982;-50
2022/05/17 05:06:08;;;;;;;0.70;0.10;;;;;;;10.90;100.00;99545.52;1779552;78;21056;-50
2022/05/17 05:08:35;;;;;;;2.00;0.20;;;;;;;11.01;100.00;99553.91;1763764;79;21020;-49
2022/05/17 05:11:01;;;;;;;3.70;0.20;;;;;;;11.11;100.00;99542.17;1753849;79;21045;-52
2022/05/17 05:13:28;;;;;;;1.10;0.20;;;;;;;11.21;100.00;99546.98;1752048;79;22027;-50
2022/05/17 05:15:55;;;;;;;0.30;0.17;;;;;;;11.31;100.00;99539.28;1772508;78;22061;-51
2022/05/17 05:18:23;;;;;;;3.50;0.10;;;;;;;11.41;100.00;99536.92;1753723;79;21157;-51
2022/05/17 05:20:50;;;;;;;3.85;0.20;;;;;;;11.51;100.00;99536.81;1757158;80;21208;-51
2022/05/17 05:23:16;;;;;;;0.40;0.15;;;;;;;11.61;100.00;99538.05;1755431;80;21066;-51
2022/05/17 05:25:43;;;;;;;1.07;0.10;;;;;;;11.73;100.00;99533.34;1756367;80;21340;-51
2022/05/17 05:28:09;;;;;;;0.53;0.10;;;;;;;11.85;100.00;99531.30;1754002;80;21770;-51
2022/05/17 05:30:36;;;;;;;0.30;0.10;;;;;;;11.98;100.00;99531.49;1756589;80;21793;-50
2022/05/17 05:33:03;;;;;;;3.60;0.20;;;;;;;12.11;100.00;99529.81;1776366;78;21013;-51
2022/05/17 05:35:32;;;;;;;1.70;0.20;;;;;;;12.21;100.00;99531.50;1774702;78;21645;-50
2022/05/17 05:37:58;;;;;;;3.87;0.20;;;;;;;12.32;100.00;99525.00;1755611;80;21054;-51
2022/05/17 05:40:24;;;;;;;0.78;0.20;;;;;;;12.45;100.00;99524.66;1752241;80;21075;-51
2022/05/17 05:42:53;;;;;;;0.80;0.10;;;;;;;12.55;100.00;99532.60;1754143;80;21996;-51
2022/05/17 05:45:20;;;;;;;1.27;0.10;;;;;;;12.62;100.00;99532.62;1753888;80;21079;-50
2022/05/17 05:47:48;;;;;;;1.75;0.10;;;;;;;12.65;100.00;99538.33;1750571;80;21106;-50
2022/05/17 05:50:14;;;;;;;2.55;0.15;;;;;;;12.67;100.00;99529.66;1733232;80;21368;-50
2022/05/17 05:52:41;;;;;;;0.55;0.10;;;;;;;12.68;100.00;99532.23;1740537;79;21422;-50
2022/05/17 05:55:12;;;;;;;2.00;0.10;;;;;;;12.72;100.00;99527.06;1769092;78;21225;-49
2022/05/17 05:57:38;;;;;;;0.33;0.10;;;;;;;12.81;100.00;99526.98;1761845;78;21028;-50
2022/05/17 06:00:06;;;;;;;0.65;0.10;;;;;;;12.93;100.00;99520.81;1763228;78;21501;-51
2022/05/17 06:02:34;;;;;;;0.30;0.10;;;;;;;13.05;100.00;99525.95;1764011;78;21115;-51
2022/05/17 06:05:01;;;;;;;1.00;0.20;;;;;;;13.16;100.00;99527.07;1760223;78;21830;-52
2022/05/17 06:07:27;;;;;;;0.82;0.20;;;;;;;13.29;100.00;99528.98;1760669;78;21124;-51
2022/05/17 06:09:54;;;;;;;0.50;0.10;;;;;;;13.38;100.00;99529.76;1761154;78;21068;-50
2022/05/17 06:12:21;;;;;;;0.80;0.10;;;;;;;13.46;100.00;99536.42;1771361;78;21052;-52
2022/05/17 06:14:50;;;;;;;0.13;0.10;;;;;;;13.54;100.00;99530.04;1769569;78;21060;-49
2022/05/17 06:17:17;;;;;;;4.15;0.30;;;;;;;13.63;100.00;99525.39;1760185;78;21095;-50
2022/05/17 06:19:43;;;;;;;1.40;0.10;;;;;;;13.67;100.00;99521.16;1764598;78;22053;-51
2022/05/17 06:22:11;;;;;;;0.80;0.20;;;;;;;13.71;100.00;99524.03;1765837;78;21497;-52
2022/05/17 06:24:38;;;;;;;4.58;0.20;;;;;;;13.76;100.00;99513.80;1769958;78;21068;-50
2022/05/17 06:27:05;;;;;;;0.20;0.10;;;;;;;13.85;100.00;99518.61;1766093;78;21430;-50
2022/05/17 06:29:32;;;;;;;0.55;0.10;;;;;;;13.93;100.00;99514.92;1770828;78;21058;-50
2022/05/17 06:31:58;;;;;;;0.15;0.05;;;;;;;14.01;100.00;99518.86;1767482;78;22448;-52
2022/05/17 06:34:24;;;;;;;0.40;0.20;;;;;;;14.06;100.00;99515.83;1771899;78;21502;-52
2022/05/17 06:36:51;;;;;;;1.37;0.10;;;;;;;14.10;100.00;99514.67;1763783;78;21074;-52
2022/05/17 06:39:17;;;;;;;0.65;0.10;;;;;;;14.12;100.00;99524.89;1759916;78;21104;-51
2022/05/17 06:41:45;;;;;;;0.93;0.15;;;;;;;14.17;100.00;99509.72;1767809;78;21044;-54
2022/05/17 06:44:11;;;;;;;0.30;0.10;;;;;;;14.24;100.00;99507.84;1763802;78;21259;-51
2022/05/17 06:46:37;;;;;;;0.13;0.10;;;;;;;14.33;100.00;99504.52;1764896;78;20949;-52
2022/05/17 06:49:04;;;;;;;1.52;0.10;;;;;;;14.41;100.00;99496.39;1763022;78;21538;-53
2022/05/17 06:51:32;;;;;;;1.27;0.10;;;;;;;14.46;100.00;99505.09;1770408;78;21415;-50
2022/05/17 06:53:58;;;;;;;1.15;0.10;;;;;;;14.49;100.00;99496.73;1742175;79;20989;-53
2022/05/17 06:56:25;;;;;;;0.00;0.00;;;;;;;14.50;100.00;99495.29;1742549;79;21392;-53
2022/05/17 06:58:51;;;;;;;0.30;0.00;;;;;;;14.54;100.00;99483.28;1732056;80;22198;-53
2022/05/17 07:01:18;;;;;;;0.62;0.10;;;;;;;14.59;100.00;99481.12;1740209;81;20998;-50
2022/05/17 07:03:44;;;;;;;0.78;0.10;;;;;;;14.65;100.00;99481.17;1722838;82;21370;-53
2022/05/17 07:06:11;;;;;;;0.10;0.05;;;;;;;14.73;100.00;99478.80;1723147;82;21101;-51
2022/05/17 07:08:38;;;;;;;0.30;0.00;;;;;;;14.82;100.00;99487.64;1743139;81;21136;-54
2022/05/17 07:13:49;;;;;;;;;;;;;;;14.96;100.00;99478.08;1739842;81;21667;-51
2022/05/17 07:16:15;;;;;;;0.93;0.00;;;;;;;15.06;100.00;99474.20;1740962;81;20723;-53
2022/05/17 07:18:44;;;;;;;0.25;0.10;;;;;;;15.08;100.00;99464.12;1741227;81;21453;-53
2022/05/17 07:21:13;;;;;;;0.10;0.10;;;;;;;15.08;100.00;99473.13;1739483;81;21693;-52
2022/05/17 07:23:40;;;;;;;0.35;0.00;;;;;;;15.11;100.00;99466.14;1744225;81;20957;-53
2022/05/17 07:26:11;;;;;;;2.67;0.08;;;;;;;15.17;100.00;99457.17;1739994;81;21095;-52
2022/05/17 07:28:44;;;;;;;0.20;0.10;;;;;;;15.24;100.00;99453.91;1746328;81;21056;-52
2022/05/17 07:31:11;;;;;;;0.28;0.00;;;;;;;15.34;100.00;99452.77;1745193;81;21092;-51
2022/05/17 07:33:40;;;;;;;0.00;0.00;;;;;;;15.47;100.00;99453.14;1740666;81;21137;-52
2022/05/17 07:36:08;;;;;;;0.10;0.00;;;;;;;15.58;100.00;99464.56;1744465;81;21104;-53
2022/05/17 07:38:36;;;;;;;0.10;0.00;;;;;;;15.70;100.00;99451.47;1739040;81;21685;-52
2022/05/17 07:41:03;;;;;;;0.13;0.10;;;;;;;15.81;100.00;99447.48;1738911;81;21747;-54
2022/05/17 07:43:29;;;;;;;0.00;0.00;;;;;;;15.89;100.00;99440.12;1743588;81;20961;-52
2022/05/17 07:45:57;;;;;;;0.47;0.00;;;;;;;15.92;100.00;99441.23;1725773;82;21106;-52
2022/05/17 07:48:25;;;;;;;0.30;0.10;;;;;;;15.99;100.00;99440.30;1738176;80;21100;-53
2022/05/17 07:50:52;;;;;;;0.50;0.08;;;;;;;15.99;100.00;99440.30;1753574;80;21056;-53
2022/05/17 07:53:20;;;;;;;0.10;0.00;;;;;;;16.04;100.00;99443.03;1746829;79;21072;-53
2022/05/17 07:55:48;;;;;;;1.95;0.10;;;;;;;16.09;100.00;99426.38;1755925;81;21060;-54
2022/05/17 07:58:15;;;;;;;1.00;0.10;;;;;;;16.18;100.00;99424.32;1746243;81;21137;-55
2022/05/17 08:00:42;;;;;;;0.00;0.00;;;;;;;16.28;100.00;99434.38;1746734;81;21099;-52
2022/05/17 08:03:12;;;;;;;0.10;0.00;;;;;;;16.38;100.00;99424.16;1752682;78;21048;-55
2022/05/17 08:05:39;;;;;;;0.20;0.00;;;;;;;16.45;100.00;99430.84;1745923;81;20916;-52
2022/05/17 08:08:06;;;;;;;0.13;0.00;;;;;;;16.54;100.00;99426.06;1751901;81;21088;-56
2022/05/17 08:10:33;;;;;;;1.55;0.00;;;;;;;16.66;100.00;99422.44;1722284;81;21127;-52
2022/05/17 08:13:00;;;;;;;1.05;0.00;;;;;;;16.81;100.00;99424.43;1748253;81;21053;-54
2022/05/17 08:15:28;;;;;;;0.10;0.00;;;;;;;16.86;100.00;99410.84;1747101;81;21084;-54
2022/05/17 08:17:55;;;;;;;0.20;0.00;;;;;;;16.81;100.00;99408.13;1743838;81;21057;-53
2022/05/17 08:20:22;;;;;;;0.00;0.00;;;;;;;16.78;100.00;99415.14;1747455;78;21053;-54
2022/05/17 08:22:49;;;;;;;1.07;0.00;;;;;;;16.75;100.00;99407.25;1746850;81;21213;-53
2022/05/17 08:28:03;;;;;;;1.00;0.10;;;;;;;16.88;100.00;99403.43;1749685;81;21088;-56
2022/05/17 08:30:31;;;;;;;0.62;0.00;;;;;;;16.96;100.00;99406.89;1751868;80;21066;-54
2022/05/17 08:33:16;;;;;;;1.77;0.00;;;;;;;17.01;100.00;99397.89;1746269;81;21072;-54
2022/05/17 08:35:52;;;;;;;1.47;0.00;;;;;;;17.06;100.00;99392.94;1746521;81;21630;-54
2022/05/17 08:38:35;;;;;;;0.23;0.10;;;;;;;17.03;100.00;99397.25;1750089;79;21036;-53
2022/05/17 08:41:22;;;;;;;0.75;0.00;;;;;;;16.97;100.00;99382.80;1742327;81;21437;-52
2022/05/17 08:43:57;;;;;;;1.15;0.00;;;;;;;16.93;100.00;99389.45;1743109;79;21451;-55
2022/05/17 08:46:42;;;;;;;0.10;0.00;;;;;;;16.93;100.00;99385.38;1754881;80;21094;-52
2022/05/17 08:49:26;;;;;;;0.03;0.00;;;;;;;16.94;100.00;99385.26;1746251;80;21353;-52
2022/05/17 08:52:14;;;;;;;0.23;0.00;;;;;;;16.95;100.00;99388.84;1752915;80;20949;-52
2022/05/17 08:54:44;;;;;;;2.02;0.08;;;;;;;16.95;100.00;99386.13;1766507;80;20991;-54
2022/05/17 08:57:40;;;;;;;1.35;0.10;;;;;;;16.96;100.00;99378.34;1761510;80;21276;-54
2022/05/17 09:00:20;;;;;;;0.37;0.10;;;;;;;16.97;100.00;99367.36;1761059;80;21061;-53
2022/05/17 09:03:01;;;;;;;0.10;0.00;;;;;;;17.03;100.00;99355.97;1766394;80;21536;-53
2022/05/17 09:05:40;;;;;;;0.20;0.00;;;;;;;17.15;100.00;99355.98;1761889;80;21097;-53
2022/05/17 09:08:38;;;;;;;1.55;0.00;;;;;;;17.26;100.00;99352.77;1766193;80;20931;-52
2022/05/17 09:11:26;;;;;;;0.95;0.35;;;;;;;17.32;100.00;99360.41;1764330;78;21014;-52
2022/05/17 09:14:16;;;;;;;0.93;0.00;;;;;;;17.36;100.00;99358.28;1754071;80;20948;-52
2022/05/17 09:16:46;;;;;;;1.02;0.05;;;;;;;17.36;100.00;99356.92;1739145;80;21131;-54
2022/05/17 09:19:14;;;;;;;0.20;0.00;;;;;;;17.30;100.00;99350.64;1767336;80;20912;-53
2022/05/17 09:21:43;;;;;;;0.35;0.00;;;;;;;17.30;100.00;99350.64;1765929;80;21343;-52
2022/05/17 09:24:15;;;;;;;0.20;0.00;;;;;;;17.34;100.00;99335.31;1765791;80;20951;-52
2022/05/17 09:27:01;;;;;;;1.85;0.10;;;;;;;17.39;100.00;99343.08;1747673;80;20947;-53
2022/05/17 09:29:42;;;;;;;1.45;0.00;;;;;;;17.42;100.00;99338.76;1761901;80;21798;-54
2022/05/17 09:32:11;;;;;;;2.33;0.10;;;;;;;17.45;100.00;99349.86;1766397;78;21535;-53
2022/05/17 09:34:44;;;;;;;0.40;0.10;;;;;;;17.39;100.00;99340.36;1762062;80;21445;-52
2022/05/17 09:37:16;;;;;;;0.35;0.17;;;;;;;17.35;100.00;99337.02;1766098;80;20947;-55
2022/05/17 09:39:51;;;;;;;0.65;0.10;;;;;;;17.39;100.00;99339.87;1770900;80;20962;-56
2022/05/17 09:42:45;;;;;;;0.25;0.00;;;;;;;17.48;100.00;99325.13;1767968;80;22135;-54
2022/05/17 09:45:15;;;;;;;4.22;0.10;;;;;;;17.50;100.00;99328.59;1768080;80;20955;-54
2022/05/17 09:47:46;;;;;;;0.30;0.10;;;;;;;17.49;100.00;99339.11;1762933;80;21548;-53
2022/05/17 09:53:05;;;;;;;0.72;0.10;;;;;;;17.50;100.00;99324.52;1767717;78;21438;-53
2022/05/17 09:55:33;;;;;;;0.33;0.10;;;;;;;17.63;100.00;99319.30;1765091;80;21098;-54
2022/05/17 09:58:08;;;;;;;2.70;0.10;;;;;;;17.78;100.00;99324.46;1762841;80;21082;-53
2022/05/17 10:00:47;;;;;;;2.20;0.10;;;;;;;17.89;100.00;99311.65;1765389;80;21070;-52
2022/05/17 10:03:31;;;;;;;2.15;0.10;;;;;;;17.98;100.00;99301.33;1762538;80;21357;-54
2022/05/17 10:07:15;;;;;;;2.47;0.20;;;;;;;17.98;100.00;99319.03;1781250;78;27493;-53
2022/05/17 10:09:41;;;;;;;0.88;0.10;;;;;;;17.83;100.00;99301.29;1749189;80;21495;-52
2022/05/17 10:12:16;;;;;;;0.40;0.20;;;;;;;17.82;100.00;99295.97;1744289;80;21645;-53
2022/05/17 10:14:53;;;;;;;0.33;0.10;;;;;;;17.89;100.00;99291.23;1746143;80;20864;-52
2022/05/17 10:17:40;;;;;;;2.25;0.20;;;;;;;18.01;100.00;99287.47;1750831;80;21507;-55
2022/05/17 10:20:16;;;;;;;0.75;0.10;;;;;;;18.14;100.00;99271.78;1711630;81;21013;-52
2022/05/17 10:23:07;;;;;;;3.05;0.75;;;;;;;18.22;100.00;99287.45;1696867;83;20954;-54
2022/05/17 10:25:50;;;;;;;1.90;0.10;;;;;;;18.28;100.00;99271.09;1693740;82;21216;-53
2022/05/17 10:28:31;;;;;;;0.60;0.15;;;;;;;18.36;100.00;99269.42;1706271;82;22019;-51
2022/05/17 10:31:21;;;;;;;0.40;0.10;;;;;;;18.44;100.00;99271.47;1701788;82;21401;-53
2022/05/17 10:34:05;;;;;;;1.87;0.10;;;;;;;18.50;100.00;99269.55;1650414;82;21073;-52
2022/05/17 10:36:40;;;;;;;0.45;0.20;;;;;;;18.55;100.00;99282.27;1701235;82;21441;-54
2022/05/17 10:39:42;;;;;;;;;;;;;;;18.58;100.00;99268.91;1705760;82;21956;-53
2022/05/17 10:42:09;;;;;;;0.65;0.10;;;;;;;18.58;100.00;99264.82;1705639;82;20490;-54
2022/05/17 10:44:45;;;;;;;0.10;0.08;;;;;;;18.54;100.00;99260.95;1710171;82;21065;-54
2022/05/17 10:47:37;;;;;;;0.50;0.10;;;;;;;18.52;100.00;99241.18;1704895;82;21062;-55
2022/05/17 10:50:34;;;;;;;0.75;0.10;;;;;;;18.52;100.00;99256.66;1705031;82;21535;-52
2022/05/17 10:53:50;;;;;;;2.45;0.20;;;;;;;18.54;100.00;99247.86;1713609;82;21921;-53
2022/05/17 10:56:32;;;;;;;0.40;0.20;;;;;;;18.58;100.00;99241.65;1707283;82;21584;-54
2022/05/17 10:59:15;;;;;;;3.30;0.10;;;;;;;18.66;100.00;99239.10;1676144;83;21008;-52
2022/05/17 11:02:17;;;;;;;0.78;0.30;;;;;;;18.64;100.00;99243.82;1677425;83;21077;-51
2022/05/17 11:05:09;;;;;;;5.62;0.20;;;;;;;18.54;100.00;99242.41;1678522;83;21077;-53
2022/05/17 11:08:19;;;;;;;5.83;0.20;;;;;;;18.51;100.00;99223.09;1657673;83;22790;-53
2022/05/17 11:11:09;;;;;;;2.17;0.15;;;;;;;18.52;100.00;99238.45;1672363;83;21071;-54
2022/05/17 11:13:52;;;;;;;4.10;0.13;;;;;;;18.53;100.00;99230.64;1675658;83;21079;-53
2022/05/17 11:16:30;;;;;;;5.08;0.15;;;;;;;18.47;100.00;99226.21;1677667;83;21097;-53
2022/05/17 11:19:17;;;;;;;0.20;0.10;;;;;;;18.37;100.00;99248.49;1673004;83;21055;-55
2022/05/17 11:22:07;;;;;;;0.47;0.13;;;;;;;18.33;100.00;99230.67;1679770;83;21428;-54
2022/05/17 11:25:25;;;;;;;1.07;0.13;;;;;;;18.34;100.00;99231.04;1679672;83;20933;-54
2022/05/17 11:28:21;;;;;;;1.47;0.10;;;;;;;18.39;100.00;99224.17;1675101;83;21100;-54
2022/05/17 11:30:53;;;;;;;1.75;0.10;;;;;;;18.52;100.00;99229.41;1677937;83;21090;-55
2022/05/17 11:33:30;;;;;;;1.75;0.20;;;;;;;18.61;100.00;99209.55;1688118;83;20931;-55
2022/05/17 11:36:01;;;;;;;5.15;0.10;;;;;;;18.68;100.00;99211.21;1687774;83;21538;-55
2022/05/17 11:38:47;;;;;;;1.80;0.10;;;;;;;18.73;100.00;99201.61;1686123;83;21404;-54
2022/05/17 11:41:37;;;;;;;2.85;0.10;;;;;;;18.72;100.00;99209.42;1684408;83;20989;-54
2022/05/17 11:44:15;;;;;;;2.72;0.20;;;;;;;18.65;100.00;99207.39;1681247;83;21072;-52
2022/05/17 11:46:49;;;;;;;0.25;0.10;;;;;;;18.57;100.00;99208.58;1686604;83;21550;-54
2022/05/17 11:49:21;;;;;;;5.45;0.28;;;;;;;18.49;100.00;99210.09;1677505;83;22638;-55
2022/05/17 11:52:02;;;;;;;0.20;0.10;;;;;;;18.49;100.00;99201.05;1684832;83;20913;-53
2022/05/17 11:54:44;;;;;;;4.25;0.20;;;;;;;18.50;100.00;99195.97;1685719;83;21354;-54
2022/05/17 11:57:14;;;;;;;3.15;0.10;;;;;;;18.52;100.00;99183.08;1686749;83;20966;-53
2022/05/17 12:00:08;;;;;;;1.55;0.10;;;;;;;18.56;100.00;99191.33;1659218;84;21444;-55